Time;durP1;ratioP1;P1;durP2;ratioP2;P2;SDS_P1;SDS_P2;PMS_P1;PMS_P2;Temp;Humidity;BMP_temperature;BMP_pressure;BME280_temperature;BME280_humidity;BME280_pressure;Samples;Min_cycle;Max_cycle;Signal;HPM_P1;HPM_P2
2021/04/05 00:00:14;;;;;;;6.97;5.57;;;;;;;5.94;57.75;100388.88;694267;28;8239;-47
2021/04/05 00:00:35;;;;;;;6.10;5.38;;;;;;;5.92;57.75;100385.50;691505;28;27126;-48
2021/04/05 00:00:56;;;;;;;7.18;5.80;;;;;;;5.90;57.99;100387.50;693336;28;23416;-49
2021/04/05 00:01:18;;;;;;;6.78;5.43;;;;;;;5.86;58.08;100377.22;694146;28;1083;-50
2021/04/05 00:01:40;;;;;;;7.03;5.38;;;;;;;5.87;58.06;100376.25;692628;28;45270;-48
2021/04/05 00:02:01;;;;;;;6.50;5.10;;;;;;;5.91;57.83;100369.59;692720;28;24470;-49
2021/04/05 00:02:22;;;;;;;8.35;5.45;;;;;;;5.89;57.73;100371.56;693908;28;12946;-52
2021/04/05 00:02:43;;;;;;;6.78;5.60;;;;;;;5.85;58.03;100371.03;693017;28;23549;-48
2021/04/05 00:03:05;;;;;;;7.53;5.38;;;;;;;5.82;58.32;100367.84;692692;28;46332;-49
2021/04/05 00:03:26;;;;;;;6.70;5.47;;;;;;;5.80;58.38;100372.50;693672;28;13406;-51
2021/04/05 00:03:47;;;;;;;7.20;5.67;;;;;;;5.79;58.33;100363.63;693376;28;18448;-48
2021/04/05 00:04:08;;;;;;;7.00;5.80;;;;;;;5.80;58.27;100354.59;693807;28;21301;-52
2021/04/05 00:04:29;;;;;;;8.18;5.20;;;;;;;5.77;58.32;100355.72;693162;28;46394;-48
2021/04/05 00:04:51;;;;;;;6.40;5.15;;;;;;;5.78;58.34;100356.56;694337;28;7109;-49
2021/04/05 00:05:17;;;;;;;8.50;5.90;;;;;;;5.82;58.18;100349.06;694187;28;15026;-48
2021/04/05 00:05:41;;;;;;;6.05;5.40;;;;;;;5.81;58.03;100352.75;691997;28;61439;-48
2021/04/05 00:06:02;;;;;;;7.60;5.88;;;;;;;5.80;58.26;100356.41;693417;28;16178;-50
2021/04/05 00:06:23;;;;;;;9.43;6.05;;;;;;;5.80;58.23;100353.72;694948;28;22007;-48
2021/04/05 00:06:44;;;;;;;7.75;5.47;;;;;;;5.79;58.25;100352.91;692617;28;19758;-50
2021/04/05 00:07:06;;;;;;;6.20;5.10;;;;;;;5.77;58.33;100346.88;694135;28;22644;-50
2021/04/05 00:07:28;;;;;;;6.57;5.50;;;;;;;5.79;58.30;100358.25;694458;28;22350;-48
2021/04/05 00:07:49;;;;;;;6.68;5.50;;;;;;;5.75;58.47;100362.22;692688;28;37771;-50
2021/04/05 00:08:10;;;;;;;7.60;6.00;;;;;;;5.79;58.30;100347.53;693948;28;45459;-53
2021/04/05 00:08:31;;;;;;;7.57;5.45;;;;;;;5.80;58.17;100348.38;693311;28;23277;-49
2021/04/05 00:08:52;;;;;;;7.63;5.40;;;;;;;5.77;58.23;100354.91;693327;28;10185;-53
2021/04/05 00:09:14;;;;;;;7.55;5.50;;;;;;;5.77;58.41;100352.22;693873;28;20761;-48
2021/04/05 00:09:36;;;;;;;7.40;5.65;;;;;;;5.75;58.44;100347.03;692316;28;14682;-48
2021/04/05 00:09:57;;;;;;;6.85;5.60;;;;;;;5.75;58.30;100354.19;691835;28;46422;-49
2021/04/05 00:10:22;;;;;;;7.22;5.50;;;;;;;5.76;58.29;100345.16;694467;28;4062;-50
2021/04/05 00:10:47;;;;;;;8.15;5.65;;;;;;;5.76;58.40;100351.34;689415;28;113045;-50
2021/04/05 00:11:08;;;;;;;8.73;5.80;;;;;;;5.75;58.46;100352.38;690851;28;93178;-49
2021/04/05 00:11:29;;;;;;;6.47;5.50;;;;;;;5.78;58.41;100353.88;693261;28;22387;-49
2021/04/05 00:11:50;;;;;;;6.32;5.72;;;;;;;5.78;58.27;100348.53;692565;28;22402;-47
2021/04/05 00:12:12;;;;;;;6.70;5.40;;;;;;;5.75;58.68;100349.69;693885;28;21632;-48
2021/04/05 00:12:33;;;;;;;6.05;5.32;;;;;;;5.78;58.57;100351.19;692252;28;44403;-51
2021/04/05 00:12:56;;;;;;;6.75;5.68;;;;;;;5.75;58.54;100346.16;692574;28;44390;-48
2021/04/05 00:13:20;;;;;;;9.02;5.80;;;;;;;5.72;58.83;100352.69;692886;28;46342;-51
2021/04/05 00:13:42;;;;;;;6.55;5.55;;;;;;;5.73;58.63;100359.72;691114;28;86376;-51
2021/04/05 00:14:03;;;;;;;5.97;5.38;;;;;;;5.76;58.66;100350.53;691774;28;70236;-48
2021/04/05 00:14:24;;;;;;;8.43;5.85;;;;;;;5.75;58.62;100351.50;692878;28;21402;-49
2021/04/05 00:14:46;;;;;;;8.57;5.70;;;;;;;5.76;58.57;100347.84;693142;28;22472;-48
2021/04/05 00:15:11;;;;;;;7.57;5.70;;;;;;;5.76;58.48;100350.53;693260;28;24401;-51
2021/04/05 00:15:32;;;;;;;9.20;5.90;;;;;;;5.77;58.46;100350.38;689704;28;137521;-50
2021/04/05 00:15:54;;;;;;;7.60;5.75;;;;;;;5.78;58.48;100346.72;693242;28;22387;-48
2021/04/05 00:16:16;;;;;;;8.75;5.93;;;;;;;5.77;58.32;100344.19;691952;28;45280;-48
2021/04/05 00:16:37;;;;;;;7.30;5.95;;;;;;;5.75;58.54;100347.03;692440;28;44407;-48
2021/04/05 00:16:58;;;;;;;7.20;5.82;;;;;;;5.73;58.62;100362.38;692645;28;22382;-51
2021/04/05 00:17:19;;;;;;;7.80;5.78;;;;;;;5.76;58.56;100350.53;693867;28;21529;-50
2021/04/05 00:17:41;;;;;;;7.18;5.97;;;;;;;5.76;58.42;100356.72;693694;28;23399;-49
2021/04/05 00:18:03;;;;;;;6.45;5.78;;;;;;;5.80;58.39;100348.38;692834;28;44387;-48
2021/04/05 00:18:25;;;;;;;6.38;5.65;;;;;;;5.78;58.33;100346.72;694028;28;18420;-47
2021/04/05 00:18:47;;;;;;;7.13;5.85;;;;;;;5.80;58.01;100353.72;691216;28;70835;-48
2021/04/05 00:19:08;;;;;;;8.48;5.85;;;;;;;5.81;58.24;100352.75;692804;28;45600;-48
2021/04/05 00:19:29;;;;;;;6.95;5.55;;;;;;;5.81;58.13;100350.91;693938;28;19582;-48
2021/04/05 00:19:50;;;;;;;6.68;5.60;;;;;;;5.84;58.25;100357.78;693476;28;21527;-53
2021/04/05 00:20:14;;;;;;;7.70;5.82;;;;;;;5.83;58.23;100356.09;693373;28;22424;-48
2021/04/05 00:20:38;;;;;;;8.55;6.00;;;;;;;5.83;58.08;100346.25;691400;28;74567;-47
2021/04/05 00:21:02;;;;;;;8.55;5.82;;;;;;;5.79;58.42;100347.53;691978;28;69422;-48
2021/04/05 00:21:25;;;;;;;6.72;5.57;;;;;;;5.80;58.29;100348.38;690478;28;115087;-51
2021/04/05 00:21:46;;;;;;;6.28;5.57;;;;;;;5.81;58.20;100348.22;691572;28;69465;-48
2021/04/05 00:22:08;;;;;;;8.15;6.18;;;;;;;5.81;58.16;100344.69;693705;28;8645;-51
2021/04/05 00:22:29;;;;;;;7.13;5.82;;;;;;;5.78;58.31;100343.16;693747;28;22405;-50
2021/04/05 00:22:50;;;;;;;6.85;5.30;;;;;;;5.77;58.46;100344.19;693891;28;16759;-49
2021/04/05 00:23:11;;;;;;;6.07;5.47;;;;;;;5.74;58.29;100334.59;693055;28;46375;-47
2021/04/05 00:23:33;;;;;;;7.05;5.78;;;;;;;5.75;58.33;100344.34;692818;28;15800;-49
2021/04/05 00:23:54;;;;;;;7.88;5.75;;;;;;;5.73;58.70;100343.63;692376;28;45238;-48
2021/04/05 00:24:15;;;;;;;7.18;5.35;;;;;;;5.73;58.50;100335.59;693510;28;23517;-52
2021/04/05 00:24:36;;;;;;;7.22;5.43;;;;;;;5.72;58.87;100341.09;693325;28;22352;-48
2021/04/05 00:24:57;;;;;;;6.68;5.45;;;;;;;5.70;58.80;100337.75;693176;28;23434;-50
2021/04/05 00:25:19;;;;;;;6.03;5.38;;;;;;;5.69;58.83;100334.25;693022;28;23500;-48
2021/04/05 00:25:40;;;;;;;6.18;5.20;;;;;;;5.68;58.73;100332.53;692723;28;23676;-48
2021/04/05 00:26:02;;;;;;;6.20;5.35;;;;;;;5.67;58.86;100328.16;692313;28;47308;-52
2021/04/05 00:26:24;;;;;;;7.00;5.53;;;;;;;5.65;59.06;100326.66;692825;28;46282;-48
2021/04/05 00:26:45;;;;;;;6.15;5.35;;;;;;;5.64;59.05;100319.63;693697;28;22229;-48
2021/04/05 00:27:07;;;;;;;5.90;5.30;;;;;;;5.64;59.01;100319.63;691871;28;46395;-48
2021/04/05 00:27:28;;;;;;;5.95;5.32;;;;;;;5.68;58.83;100319.16;692562;28;44386;-50
2021/04/05 00:27:49;;;;;;;6.75;5.50;;;;;;;5.67;58.85;100313.94;693321;28;23486;-53
2021/04/05 00:28:11;;;;;;;6.15;5.28;;;;;;;5.64;58.90;100309.72;693356;28;23376;-50
2021/04/05 00:28:32;;;;;;;6.32;5.32;;;;;;;5.64;58.97;100309.72;692528;28;45269;-52
2021/04/05 00:28:53;;;;;;;8.07;5.63;;;;;;;5.64;59.03;100307.03;693646;28;1998;-48
2021/04/05 00:29:14;;;;;;;9.07;5.57;;;;;;;5.64;58.98;100314.25;694654;28;913;-48
2021/04/05 00:29:35;;;;;;;6.75;5.30;;;;;;;5.65;58.94;100306.06;693022;28;1265;-51
2021/04/05 00:29:56;;;;;;;5.55;4.85;;;;;;;5.67;58.86;100309.41;693549;28;22415;-50
2021/04/05 00:30:21;;;;;;;6.32;5.43;;;;;;;5.66;58.88;100312.25;693130;28;23518;-50
2021/04/05 00:30:42;;;;;;;6.88;5.43;;;;;;;5.67;58.78;100313.94;690036;28;92720;-49
2021/04/05 00:31:04;;;;;;;7.40;5.43;;;;;;;5.68;58.75;100318.31;692954;28;38482;-51
2021/04/05 00:31:25;;;;;;;6.10;5.22;;;;;;;5.69;58.91;100317.28;691158;28;43978;-48
2021/04/05 00:31:46;;;;;;;5.95;4.95;;;;;;;5.72;58.84;100319.66;693409;28;24432;-50
2021/04/05 00:32:08;;;;;;;6.55;5.55;;;;;;;5.72;58.66;100312.50;693249;28;21558;-48
2021/04/05 00:32:29;;;;;;;7.78;5.80;;;;;;;5.69;58.79;100312.81;692870;28;45345;-49
2021/04/05 00:32:50;;;;;;;6.78;5.45;;;;;;;5.69;59.01;100315.47;693528;28;14710;-48
2021/04/05 00:33:11;;;;;;;5.70;5.15;;;;;;;5.72;58.67;100309.81;693341;28;15031;-51
2021/04/05 00:33:33;;;;;;;5.55;4.93;;;;;;;5.74;58.63;100307.81;693960;28;8423;-49
2021/04/05 00:33:54;;;;;;;6.95;5.50;;;;;;;5.76;58.53;100310.34;693549;28;1299;-48
2021/04/05 00:34:15;;;;;;;6.40;5.35;;;;;;;5.74;58.67;100312.34;693677;28;22507;-51
2021/04/05 00:34:36;;;;;;;7.05;5.20;;;;;;;5.75;58.78;100322.03;693150;28;22484;-49
2021/04/05 00:34:58;;;;;;;5.90;5.22;;;;;;;5.76;58.52;100313.84;693706;28;22421;-53
2021/04/05 00:35:20;;;;;;;6.10;5.28;;;;;;;5.80;58.36;100310.84;692425;28;38358;-48
2021/04/05 00:35:42;;;;;;;7.93;5.57;;;;;;;5.74;58.44;100302.44;692557;28;37673;-50
2021/04/05 00:36:03;;;;;;;6.50;5.18;;;;;;;5.80;58.54;100302.81;692773;28;43862;-49
2021/04/05 00:36:24;;;;;;;6.75;5.35;;;;;;;5.78;58.49;100309.19;694022;28;24191;-49
2021/04/05 00:36:46;;;;;;;8.07;5.30;;;;;;;5.79;58.49;100310.03;692412;28;23464;-51
2021/04/05 00:37:07;;;;;;;7.53;5.30;;;;;;;5.78;58.31;100309.19;692306;28;46302;-47
2021/04/05 00:37:28;;;;;;;5.60;5.00;;;;;;;5.78;58.58;100308.31;693507;28;22416;-50
2021/04/05 00:37:51;;;;;;;7.07;5.25;;;;;;;5.79;58.49;100307.34;693439;28;22394;-49
2021/04/05 00:38:12;;;;;;;6.38;5.20;;;;;;;5.81;58.39;100302.66;691882;28;67521;-50
2021/04/05 00:38:34;;;;;;;6.00;5.20;;;;;;;5.84;58.28;100298.84;693063;28;22391;-51
2021/04/05 00:38:55;;;;;;;6.72;5.53;;;;;;;5.81;58.25;100297.28;692357;28;48401;-50
2021/04/05 00:39:17;;;;;;;6.65;5.38;;;;;;;5.78;58.31;100295.78;693497;28;21488;-51
2021/04/05 00:39:38;;;;;;;5.82;4.82;;;;;;;5.75;58.51;100295.25;693910;28;1698;-51
2021/04/05 00:39:59;;;;;;;6.20;5.03;;;;;;;5.71;58.78;100294.72;693839;28;21542;-50
2021/04/05 00:40:24;;;;;;;7.88;5.00;;;;;;;5.71;58.80;100301.94;693911;28;1817;-47
2021/04/05 00:40:48;;;;;;;7.28;5.13;;;;;;;5.74;58.64;100299.78;685139;28;158588;-53
2021/04/05 00:41:13;;;;;;;5.78;4.90;;;;;;;5.77;58.53;100287.91;690946;28;14594;-48
2021/04/05 00:41:35;;;;;;;5.85;5.22;;;;;;;5.76;58.55;100292.41;688895;28;82395;-48
2021/04/05 00:41:56;;;;;;;6.22;5.15;;;;;;;5.73;58.71;100295.41;691476;28;907;-50
2021/04/05 00:42:18;;;;;;;6.90;5.35;;;;;;;5.72;58.90;100295.56;691993;28;902;-51
2021/04/05 00:42:40;;;;;;;6.45;5.00;;;;;;;5.71;58.80;100291.22;689767;28;46292;-48
2021/04/05 00:43:03;;;;;;;7.22;5.05;;;;;;;5.72;58.86;100295.56;691189;28;1009;-48
2021/04/05 00:43:25;;;;;;;6.43;5.25;;;;;;;5.70;58.85;100290.34;689133;28;68357;-48
2021/04/05 00:43:48;;;;;;;6.70;5.13;;;;;;;5.74;58.69;100286.38;690624;28;22433;-49
2021/04/05 00:44:09;;;;;;;9.82;5.28;;;;;;;5.75;58.66;100295.25;687574;28;92262;-48
2021/04/05 00:44:30;;;;;;;6.70;5.15;;;;;;;5.77;58.69;100288.75;690288;28;44379;-49
2021/04/05 00:44:51;;;;;;;5.22;4.72;;;;;;;5.76;58.52;100287.03;690652;28;22414;-49
2021/04/05 00:45:15;;;;;;;6.10;5.47;;;;;;;5.77;58.54;100278.03;690948;28;21528;-51
2021/04/05 00:45:37;;;;;;;6.53;5.43;;;;;;;5.76;58.63;100276.31;689296;28;67505;-49
2021/04/05 00:45:58;;;;;;;6.78;5.22;;;;;;;5.73;58.77;100268.59;687961;28;69302;-51
2021/04/05 00:46:21;;;;;;;5.45;4.95;;;;;;;5.72;58.84;100277.66;690750;28;22490;-49
2021/04/05 00:46:42;;;;;;;5.40;4.80;;;;;;;5.73;58.86;100270.44;690084;28;46335;-48
2021/04/05 00:47:04;;;;;;;6.53;4.90;;;;;;;5.75;58.67;100271.13;690757;28;21542;-48
2021/04/05 00:47:25;;;;;;;7.38;5.07;;;;;;;5.73;58.73;100279.31;689793;28;44425;-52
2021/04/05 00:47:47;;;;;;;7.78;5.20;;;;;;;5.71;58.77;100267.09;690332;28;22431;-48
2021/04/05 00:48:10;;;;;;;5.78;5.07;;;;;;;5.71;58.98;100270.59;689242;28;67379;-48
2021/04/05 00:48:31;;;;;;;6.07;5.10;;;;;;;5.70;58.90;100278.81;689982;28;44304;-50
2021/04/05 00:48:52;;;;;;;6.88;5.03;;;;;;;5.68;59.00;100278.13;690018;28;22396;-51
2021/04/05 00:49:15;;;;;;;5.97;5.28;;;;;;;5.67;59.08;100273.75;685711;28;70274;-49
2021/04/05 00:49:36;;;;;;;6.20;5.03;;;;;;;5.69;59.04;100269.06;686872;28;45287;-49
2021/04/05 00:49:58;;;;;;;5.65;5.00;;;;;;;5.70;58.88;100263.56;688039;28;22405;-49
2021/04/05 00:50:25;;;;;;;5.22;4.72;;;;;;;5.71;58.85;100267.94;684459;28;23517;-50
2021/04/05 00:50:49;;;;;;;5.80;4.95;;;;;;;5.70;58.90;100265.41;686907;28;137846;-48
2021/04/05 00:51:12;;;;;;;6.13;5.03;;;;;;;5.69;59.01;100259.22;692014;28;63704;-50
2021/04/05 00:51:34;;;;;;;6.35;5.15;;;;;;;5.68;59.02;100254.84;692388;28;92091;-50
2021/04/05 00:51:55;;;;;;;6.82;5.10;;;;;;;5.69;58.90;100258.34;694240;28;22379;-51
2021/04/05 00:52:16;;;;;;;6.72;4.68;;;;;;;5.72;58.84;100258.03;692266;28;22438;-51
2021/04/05 00:52:37;;;;;;;5.53;4.60;;;;;;;5.70;58.96;100255.50;691376;28;22109;-53
2021/04/05 00:52:59;;;;;;;5.63;4.82;;;;;;;5.70;58.93;100257.38;691257;28;47283;-48
2021/04/05 00:53:25;;;;;;;5.85;4.68;;;;;;;5.72;58.82;100258.91;692096;28;21591;-54
2021/04/05 00:53:47;;;;;;;5.85;4.75;;;;;;;5.73;58.79;100254.38;688337;28;132241;-48
2021/04/05 00:54:09;;;;;;;5.63;5.00;;;;;;;5.73;58.84;100254.38;691937;28;44657;-48
2021/04/05 00:54:30;;;;;;;6.43;5.05;;;;;;;5.74;58.80;100248.84;692579;28;24446;-50
2021/04/05 00:54:52;;;;;;;6.38;4.88;;;;;;;5.73;58.92;100249.84;691956;28;45214;-49
2021/04/05 00:55:13;;;;;;;5.85;5.13;;;;;;;5.70;59.08;100244.81;693005;28;17743;-48
2021/04/05 00:55:35;;;;;;;5.50;4.80;;;;;;;5.69;59.24;100237.78;691763;28;42557;-51
2021/04/05 00:55:58;;;;;;;5.57;4.82;;;;;;;5.69;59.21;100240.47;692274;28;22409;-54
2021/04/05 00:56:22;;;;;;;7.65;5.00;;;;;;;5.71;59.00;100243.81;690539;28;92185;-48
2021/04/05 00:56:44;;;;;;;7.75;4.95;;;;;;;5.71;58.87;100240.31;690191;28;92328;-50
2021/04/05 00:57:06;;;;;;;5.47;4.80;;;;;;;5.69;59.04;100237.78;692788;28;22426;-49
2021/04/05 00:57:27;;;;;;;6.22;4.80;;;;;;;5.71;58.92;100242.97;691192;28;45229;-47
2021/04/05 00:57:48;;;;;;;5.82;4.95;;;;;;;5.72;58.88;100240.16;692555;28;23534;-54
2021/04/05 00:58:10;;;;;;;6.95;5.30;;;;;;;5.74;58.94;100231.94;691621;28;30405;-51
2021/04/05 00:58:31;;;;;;;6.43;5.25;;;;;;;5.75;58.81;100236.28;692410;28;22485;-50
2021/04/05 00:58:53;;;;;;;6.30;5.00;;;;;;;5.74;58.94;100234.63;691406;28;38096;-48
2021/04/05 00:59:15;;;;;;;5.78;5.03;;;;;;;5.74;58.94;100231.94;691059;28;45447;-53
2021/04/05 00:59:36;;;;;;;5.53;4.93;;;;;;;5.72;59.03;100233.91;692684;28;21578;-49
2021/04/05 00:59:57;;;;;;;5.30;4.80;;;;;;;5.73;58.77;100231.09;692258;28;22906;-49
2021/04/05 01:00:22;;;;;;;5.10;4.60;;;;;;;5.74;58.71;100226.59;693481;28;890;-48
2021/04/05 01:00:46;;;;;;;5.38;4.68;;;;;;;5.75;58.69;100220.22;688032;28;92299;-51
2021/04/05 01:01:10;;;;;;;5.97;4.63;;;;;;;5.73;58.89;100223.06;690685;28;37026;-50
2021/04/05 01:01:32;;;;;;;5.68;4.90;;;;;;;5.71;58.93;100217.00;688573;28;61637;-52
2021/04/05 01:01:53;;;;;;;5.22;4.68;;;;;;;5.70;59.03;100219.84;690983;28;22400;-49
2021/04/05 01:02:14;;;;;;;6.00;4.97;;;;;;;5.71;58.93;100214.34;691834;28;17210;-50
2021/04/05 01:02:35;;;;;;;6.05;5.07;;;;;;;5.71;58.94;100218.88;690211;28;45710;-49
2021/04/05 01:02:57;;;;;;;5.93;5.03;;;;;;;5.74;58.91;100214.03;691245;28;22406;-48
2021/04/05 01:03:19;;;;;;;5.65;4.57;;;;;;;5.79;58.55;100213.53;690604;28;20011;-50
2021/04/05 01:03:41;;;;;;;5.63;4.65;;;;;;;5.77;58.63;100219.06;688808;28;69398;-49
2021/04/05 01:04:03;;;;;;;5.45;4.93;;;;;;;5.77;58.68;100212.88;689252;28;38204;-50
2021/04/05 01:04:24;;;;;;;5.65;5.07;;;;;;;5.78;58.58;100211.84;690065;28;44330;-49
2021/04/05 01:04:45;;;;;;;6.90;5.20;;;;;;;5.82;58.33;100217.75;690025;28;22418;-49
2021/04/05 01:05:08;;;;;;;7.55;4.97;;;;;;;5.78;58.55;100210.03;691640;28;16458;-48
2021/04/05 01:05:29;;;;;;;6.18;4.80;;;;;;;5.80;58.51;100215.25;689727;28;69440;-52
2021/04/05 01:05:52;;;;;;;4.80;4.30;;;;;;;5.80;58.58;100207.19;690384;28;22421;-51
2021/04/05 01:06:16;;;;;;;6.80;4.38;;;;;;;5.76;58.43;100203.97;689568;28;67923;-48
2021/04/05 01:06:37;;;;;;;6.90;4.78;;;;;;;5.74;58.71;100205.97;689923;28;69428;-52
2021/04/05 01:06:58;;;;;;;5.75;4.53;;;;;;;5.74;58.66;100203.31;690481;28;45258;-54
2021/04/05 01:07:19;;;;;;;7.22;5.03;;;;;;;5.73;58.70;100208.81;691221;28;21550;-48
2021/04/05 01:07:41;;;;;;;6.53;4.90;;;;;;;5.72;58.78;100204.44;689792;28;22173;-51
2021/04/05 01:08:03;;;;;;;6.10;4.88;;;;;;;5.71;58.72;100202.78;690788;28;21604;-48
2021/04/05 01:08:25;;;;;;;5.03;4.50;;;;;;;5.68;58.97;100198.56;689475;28;69478;-48
2021/04/05 01:08:46;;;;;;;5.68;4.80;;;;;;;5.69;58.79;100194.91;691246;28;23537;-47
2021/04/05 01:09:07;;;;;;;5.80;4.83;;;;;;;5.70;58.94;100199.25;690940;28;23524;-49
2021/04/05 01:09:28;;;;;;;5.65;4.93;;;;;;;5.68;58.80;100192.38;690074;28;45511;-48
2021/04/05 01:09:50;;;;;;;5.53;4.72;;;;;;;5.67;59.10;100194.19;691645;28;1355;-49
2021/04/05 01:10:11;;;;;;;5.18;4.60;;;;;;;5.67;59.00;100194.19;691561;28;13605;-50
2021/04/05 01:10:32;;;;;;;6.57;4.65;;;;;;;5.68;58.91;100192.38;690796;28;44040;-52
2021/04/05 01:10:57;;;;;;;6.03;4.47;;;;;;;5.67;59.13;100199.56;693151;28;37639;-49
2021/04/05 01:11:21;;;;;;;5.82;4.75;;;;;;;5.69;58.84;100189.56;693852;28;18474;-53
2021/04/05 01:11:42;;;;;;;5.20;4.70;;;;;;;5.68;58.80;100179.00;694408;28;14963;-51
2021/04/05 01:12:04;;;;;;;6.07;4.63;;;;;;;5.67;58.94;100180.81;693431;28;21548;-48
2021/04/05 01:12:26;;;;;;;5.90;4.65;;;;;;;5.66;58.95;100180.97;692699;28;45338;-51
2021/04/05 01:12:47;;;;;;;7.80;4.95;;;;;;;5.66;58.95;100180.97;694454;28;863;-53
2021/04/05 01:13:08;;;;;;;5.68;4.88;;;;;;;5.66;58.71;100178.28;692756;28;45377;-48
2021/04/05 01:13:29;;;;;;;5.38;4.53;;;;;;;5.65;58.86;100173.94;693844;28;22396;-48
2021/04/05 01:13:52;;;;;;;5.18;4.63;;;;;;;5.64;58.86;100173.09;694991;28;870;-50
2021/04/05 01:14:13;;;;;;;6.30;5.00;;;;;;;5.62;58.96;100169.72;691627;28;68377;-48
2021/04/05 01:14:34;;;;;;;7.45;5.10;;;;;;;5.60;59.09;100182.47;693819;28;21417;-48
2021/04/05 01:14:56;;;;;;;6.32;4.65;;;;;;;5.63;59.00;100170.56;693664;28;21300;-48
2021/04/05 01:15:17;;;;;;;7.93;5.00;;;;;;;5.60;59.02;100171.75;692937;28;45430;-51
2021/04/05 01:15:38;;;;;;;6.35;4.65;;;;;;;5.58;59.10;100179.94;693898;28;10452;-52
2021/04/05 01:16:00;;;;;;;7.43;4.72;;;;;;;5.60;59.15;100179.78;693777;28;23489;-51
2021/04/05 01:16:25;;;;;;;9.38;5.13;;;;;;;5.62;58.93;100180.44;695036;28;937;-48
2021/04/05 01:16:47;;;;;;;5.88;4.50;;;;;;;5.61;58.87;100178.75;692008;28;61955;-49
2021/04/05 01:17:08;;;;;;;5.57;4.82;;;;;;;5.62;58.84;100180.44;693650;28;16314;-49
2021/04/05 01:17:29;;;;;;;5.95;5.05;;;;;;;5.63;58.88;100170.56;694066;28;23461;-53
2021/04/05 01:17:50;;;;;;;5.35;4.82;;;;;;;5.62;59.18;100177.78;694162;28;23416;-50
2021/04/05 01:18:13;;;;;;;6.67;4.73;;;;;;;5.61;59.20;100176.09;694616;28;3686;-51
2021/04/05 01:18:34;;;;;;;5.97;4.65;;;;;;;5.59;59.25;100181.63;692074;28;69587;-48
2021/04/05 01:18:56;;;;;;;6.73;5.20;;;;;;;5.60;59.19;100177.09;693736;28;22318;-48
2021/04/05 01:19:18;;;;;;;6.82;5.28;;;;;;;5.58;59.10;100168.41;693118;28;47477;-51
2021/04/05 01:19:39;;;;;;;6.53;4.93;;;;;;;5.55;59.17;100166.84;693431;28;47550;-50
2021/04/05 01:20:00;;;;;;;4.97;4.47;;;;;;;5.56;59.08;100176.59;693636;28;23509;-49
2021/04/05 01:20:22;;;;;;;5.32;4.65;;;;;;;5.56;59.17;100175.72;693348;28;46098;-49
2021/04/05 01:20:43;;;;;;;6.38;4.78;;;;;;;5.56;59.08;100170.38;694184;28;18248;-48
2021/04/05 01:21:05;;;;;;;5.13;4.63;;;;;;;5.55;58.87;100172.22;694443;28;1017;-48
2021/04/05 01:21:26;;;;;;;5.30;4.80;;;;;;;5.56;59.01;100181.94;693261;28;44398;-47
2021/04/05 01:21:49;;;;;;;5.75;5.13;;;;;;;5.57;59.12;100180.09;692425;28;46099;-49
2021/04/05 01:22:10;;;;;;;7.07;5.00;;;;;;;5.56;59.45;100176.59;693027;28;46583;-48
2021/04/05 01:22:31;;;;;;;5.55;4.78;;;;;;;5.54;59.24;100181.25;692737;28;46993;-51
2021/04/05 01:22:53;;;;;;;6.95;5.10;;;;;;;5.52;59.40;100172.53;693663;28;17258;-48
2021/04/05 01:23:16;;;;;;;6.18;4.65;;;;;;;5.55;59.28;100174.06;693719;28;22394;-49
2021/04/05 01:23:37;;;;;;;6.28;4.72;;;;;;;5.58;59.11;100177.25;690321;28;62206;-48
2021/04/05 01:23:59;;;;;;;5.45;4.75;;;;;;;5.63;58.96;100176.78;694447;28;981;-51
2021/04/05 01:24:21;;;;;;;5.85;5.07;;;;;;;5.63;58.84;100173.25;694391;28;4794;-48
2021/04/05 01:24:42;;;;;;;6.03;4.82;;;;;;;5.60;58.86;100169.91;693645;28;21165;-48
2021/04/05 01:25:04;;;;;;;6.50;5.07;;;;;;;5.57;59.26;100170.22;693526;28;24491;-50
2021/04/05 01:25:26;;;;;;;5.85;5.15;;;;;;;5.56;59.11;100157.84;691498;28;69115;-49
2021/04/05 01:25:47;;;;;;;6.15;4.93;;;;;;;5.56;59.18;100162.34;694219;28;4785;-50
2021/04/05 01:26:09;;;;;;;5.25;4.72;;;;;;;5.56;59.20;100165.88;693841;28;24628;-50
2021/04/05 01:26:33;;;;;;;5.63;4.53;;;;;;;5.59;58.94;100162.00;694210;28;1161;-50
2021/04/05 01:26:54;;;;;;;6.15;4.80;;;;;;;5.59;58.96;100156.66;691144;28;74531;-48
2021/04/05 01:27:15;;;;;;;5.20;4.70;;;;;;;5.59;58.99;100153.97;694469;28;16534;-48
2021/04/05 01:27:36;;;;;;;5.20;4.70;;;;;;;5.60;59.03;100153.00;693948;28;23459;-48
2021/04/05 01:27:58;;;;;;;5.82;5.05;;;;;;;5.59;59.05;100156.66;694419;28;8002;-52
2021/04/05 01:28:19;;;;;;;5.03;4.57;;;;;;;5.57;59.17;100148.78;693214;28;25109;-51
2021/04/05 01:28:41;;;;;;;5.88;4.82;;;;;;;5.59;59.04;100148.63;693484;28;22348;-47
2021/04/05 01:29:02;;;;;;;5.97;4.85;;;;;;;5.59;58.94;100145.94;691710;28;45288;-50
2021/04/05 01:29:23;;;;;;;5.30;4.50;;;;;;;5.58;59.17;100149.66;693371;28;23437;-49
2021/04/05 01:29:45;;;;;;;5.95;4.80;;;;;;;5.60;58.89;100147.63;692768;28;47175;-50
2021/04/05 01:30:08;;;;;;;6.88;5.13;;;;;;;5.63;58.85;100136.59;693761;28;23440;-52
2021/04/05 01:30:35;;;;;;;5.78;4.95;;;;;;;5.68;58.54;100139.63;691915;28;70511;-49
2021/04/05 01:30:58;;;;;;;6.35;4.80;;;;;;;5.66;58.64;100130.06;686032;28;157016;-48
2021/04/05 01:31:19;;;;;;;5.20;4.70;;;;;;;5.62;58.84;100123.38;690014;28;69442;-51
2021/04/05 01:31:40;;;;;;;6.63;4.97;;;;;;;5.60;58.80;100132.38;690218;28;23442;-50
2021/04/05 01:32:02;;;;;;;8.00;5.13;;;;;;;5.66;58.69;100124.69;690767;28;41349;-53
2021/04/05 01:32:23;;;;;;;6.47;5.40;;;;;;;5.64;58.48;100126.72;690871;28;21513;-49
2021/04/05 01:32:44;;;;;;;5.90;5.15;;;;;;;5.66;58.70;100125.56;690113;28;23420;-51
2021/04/05 01:33:07;;;;;;;5.72;4.97;;;;;;;5.64;58.63;100122.19;691039;28;21567;-47
2021/04/05 01:33:30;;;;;;;6.75;5.00;;;;;;;5.64;58.63;100121.34;688092;28;92426;-50
2021/04/05 01:33:52;;;;;;;6.68;5.10;;;;;;;5.63;58.62;100122.34;689802;28;62663;-51
2021/04/05 01:34:13;;;;;;;6.60;4.78;;;;;;;5.63;58.74;100120.53;692409;28;990;-49
2021/04/05 01:34:37;;;;;;;6.25;4.70;;;;;;;5.64;58.70;100116.00;690158;28;44544;-48
2021/04/05 01:34:58;;;;;;;6.45;4.72;;;;;;;5.67;58.70;100123.72;689305;28;69537;-51
2021/04/05 01:35:19;;;;;;;6.88;4.90;;;;;;;5.70;58.47;100115.34;691120;28;20963;-48
2021/04/05 01:35:43;;;;;;;7.63;4.85;;;;;;;5.68;58.65;100114.69;690292;28;46375;-50
2021/04/05 01:36:06;;;;;;;4.97;4.47;;;;;;;5.67;58.65;100113.81;689875;28;69465;-48
2021/04/05 01:36:27;;;;;;;5.22;4.55;;;;;;;5.67;58.71;100121.88;689261;28;69436;-49
2021/04/05 01:36:49;;;;;;;5.28;4.78;;;;;;;5.70;58.56;100113.50;689357;28;23456;-48
2021/04/05 01:37:10;;;;;;;5.30;4.68;;;;;;;5.72;58.39;100116.88;690019;28;45234;-50
2021/04/05 01:37:31;;;;;;;5.70;4.85;;;;;;;5.71;58.26;100106.34;691603;28;23490;-48
2021/04/05 01:37:52;;;;;;;8.93;4.97;;;;;;;5.68;58.37;100107.47;690543;28;46396;-47
2021/04/05 01:38:16;;;;;;;5.40;4.75;;;;;;;5.69;58.47;100111.00;690177;28;21522;-51
2021/04/05 01:38:39;;;;;;;5.95;4.85;;;;;;;5.69;58.27;100111.84;686389;28;67528;-48
2021/04/05 01:39:00;;;;;;;5.32;4.50;;;;;;;5.69;58.23;100109.16;686427;28;67531;-52
2021/04/05 01:39:21;;;;;;;6.07;4.93;;;;;;;5.72;58.25;100116.03;688621;28;21564;-48
2021/04/05 01:39:42;;;;;;;7.05;5.38;;;;;;;5.73;58.23;100102.47;689099;28;6384;-48
2021/04/05 01:40:04;;;;;;;6.28;5.15;;;;;;;5.72;58.28;100108.84;686307;28;3662;-50
2021/04/05 01:40:26;;;;;;;5.45;4.78;;;;;;;5.72;58.27;100108.84;689297;28;22107;-48
2021/04/05 01:40:50;;;;;;;5.45;4.72;;;;;;;5.72;58.24;100105.31;688903;28;46311;-50
2021/04/05 01:41:15;;;;;;;5.93;5.15;;;;;;;5.70;58.58;100101.97;691716;28;39005;-50
2021/04/05 01:41:36;;;;;;;6.88;5.00;;;;;;;5.70;58.42;100102.78;689448;28;92268;-51
2021/04/05 01:41:57;;;;;;;7.30;5.15;;;;;;;5.70;58.23;100101.97;692005;28;45393;-48
2021/04/05 01:42:19;;;;;;;5.78;5.10;;;;;;;5.70;58.33;100091.25;693384;28;1030;-50
2021/04/05 01:42:40;;;;;;;6.38;5.03;;;;;;;5.68;58.39;100095.94;692820;28;23489;-48
2021/04/05 01:43:02;;;;;;;6.18;5.13;;;;;;;5.66;58.38;100085.38;693471;28;8129;-48
2021/04/05 01:43:24;;;;;;;5.43;4.80;;;;;;;5.63;58.53;100079.47;690567;28;45359;-48
2021/04/05 01:43:45;;;;;;;6.28;5.10;;;;;;;5.59;58.75;100082.50;691933;28;31688;-48
2021/04/05 01:44:06;;;;;;;5.18;4.60;;;;;;;5.56;58.85;100076.63;691958;28;21473;-49
2021/04/05 01:44:27;;;;;;;5.30;4.78;;;;;;;5.55;58.97;100078.47;691299;28;22241;-48